Afyon, Turkey

2:43 PM EEST on August 27, 2016 (GMT +0300)
Suleyman Demirel | | Change Station

Elev 2835 ft 37.86 °N, 30.37 °E | Updated 23 minutes ago

Scattered Clouds
Scattered Clouds
88 °F
Feels Like 88 °F
N
10
Wind Variable Wind from WSW
Gusts 22 mph

Today
High -- | Low -- °F
--% Chance of Precip.
Yesterday
High -- | Low -- °F
Precip. -- in
Pressure 29.98 in
Visibility 6.2 miles
Clouds Scattered Clouds 3500 ft
Dew Point 50 °F
Humidity 27%
Rainfall 0.00 in
Snow Depth Not available.
6:22 AM 7:35 PM
Waning Crescent, 25% visible
METAR LTFC 271120Z 24009G19KT 210V270 9999 SCT035TCU 31/10 Q1015 RMK RWY23 23010KT 200V280
Pressure 29.98 in
Visibility 6.2 miles
Clouds Scattered Clouds 3500 ft
Dew Point 50 °F
Humidity 27%
Rainfall 0.00 in
Snow Depth Not available.
6:22 AM 7:35 PM
Waning Crescent, 25% visible
METAR LTFC 271120Z 24009G19KT 210V270 9999 SCT035TCU 31/10 Q1015 RMK RWY23 23010KT 200V280

10-Day Weather Forecast

×

Almanac

Astronomy

Aug. 27, 2016 Rise Set
Actual Time
Civil Twilight
Nautical Twilight
Astronomical Twilight
Moon
Length of Visible Light
Length of Day
Tomorrow will be .
, % of the Moon is Illuminated

Today's Extremes

Country Highs Country Lows

Community

WunderPhotos

Upload Photos

1,935,325 photos uploaded!

WunderBlog® & News

Nearby

Air Quality

  Air Quality AQ Index Pollutant
Not available.

Snow Depth

Station Depth Elevation

Earthquake Activity

City Distance Mag. Time & Date
Minimum magnitude displayed is 2.5.

Coastal Water Temperatures

Place Temperature

Stations

Nearby Weather Stations

Station Location Temp. Windchill Dew Point Humidity Wind Precip. Elev Updated Type